Pagina principale
METAR-TAF:

METAR-TAF

Aeroporti :

Aeroporto Internazionale del Kuwait

Madinat al-Kuwait, Kuwait

latitudine: 29-13N, longitudine: 047-59E, altezza: 55 m

Osservazione

Il bollettino è stato emesso 30 minuti fa, alle 23:00 UTC
Vento 3 kt da sud
Temperature 30°C
Umidità 24%
Pressione 1007 hPa
Visibilità: 7000 m
Cielo sereno

METAR: OKBK 212300Z 17003KT 7000 SKC 30/07 Q1007 NOSIG

Ora: 02:30 (23:30 UTC)

Previsione

Il bollettino è stato emesso 6 ore e 45 minuti fa, alle 16:45 UTC
Previsione valida dal 21 alle 18 UTC al 22 alle 24 UTC
Vento 8 kt da nord
Visibilità: 6000 m
Cielo sereno
Temporaneamente
dal 21 alle 18 UTC al 22 alle 06 UTC
Vento 3 kt da direzioni variabili
Visibilità: 4000 m
foschia

TAF: OKBK 211645Z 2118/2224 01008KT 6000 SKC TEMPO 2118/2206 VRB03KT 4000 HZ

Osservazioni e previsioni meteorologiche di più di 4000 aeroporti (messaggi METAR e TAF).

Le stazioni disponibili sono rappresentate dai dischi gialli e rossi sulla carta.

Puntare il mouse per vedere il nome della stazione.

Clicca sopra per visualizzare le osservazioni e previsioni meteorologiche.

Per cambiare la mappa : fare clic sui pulsanti verdi con una croce nera per ingrandire, il pulsante verde con un trattino per diminuire, o sulla freccia verde per le mappe adiacenti.


METAR-TAF: